createdAt,value
2022-08-17T00:00:34.312Z,57.36
2022-08-17T00:02:42.805Z,57.40
2022-08-17T00:04:50.441Z,56.86
2022-08-17T00:06:53.706Z,57.50
2022-08-17T00:09:00.486Z,57.65
2022-08-17T00:11:07.213Z,58.42
2022-08-17T00:13:12.307Z,58.23
2022-08-17T00:15:16.070Z,57.89
2022-08-17T00:17:19.175Z,58.06
2022-08-17T00:19:25.326Z,58.22
2022-08-17T00:21:36.068Z,58.20
2022-08-17T00:23:52.076Z,57.87
2022-08-17T00:25:56.393Z,58.12
2022-08-17T00:27:59.412Z,63.00
2022-08-17T00:30:03.960Z,62.01
2022-08-17T00:33:15.409Z,61.22
2022-08-17T00:34:29.962Z,60.66
2022-08-17T00:36:34.661Z,60.67
2022-08-17T00:38:39.105Z,61.34
2022-08-17T00:40:45.390Z,60.95
2022-08-17T00:42:50.503Z,60.57
2022-08-17T00:44:53.414Z,60.23
2022-08-17T00:46:56.574Z,59.71
2022-08-17T00:48:59.840Z,59.42
2022-08-17T00:51:13.013Z,59.37
2022-08-17T00:53:16.565Z,59.28
2022-08-17T00:55:20.008Z,59.55
2022-08-17T00:57:27.384Z,59.21
2022-08-17T01:00:02.158Z,59.13
2022-08-17T01:02:09.571Z,70.45
2022-08-17T01:04:14.186Z,75.40
2022-08-17T01:06:17.092Z,73.64
2022-08-17T01:08:24.986Z,69.94
2022-08-17T01:11:00.628Z,68.88
2022-08-17T01:12:56.696Z,67.48
2022-08-17T01:15:01.345Z,68.17
2022-08-17T01:17:04.933Z,73.10
2022-08-17T01:19:15.696Z,75.98
2022-08-17T01:21:24.440Z,72.73
2022-08-17T01:23:29.232Z,71.44
2022-08-17T01:25:33.014Z,69.69
2022-08-17T01:27:37.476Z,69.51
2022-08-17T01:29:45.519Z,67.08
2022-08-17T01:31:51.732Z,66.31
2022-08-17T01:33:54.576Z,66.47
2022-08-17T01:35:57.494Z,65.42
2022-08-17T01:38:00.473Z,68.07
2022-08-17T01:40:08.775Z,67.81
2022-08-17T01:42:18.099Z,68.97
2022-08-17T01:44:22.998Z,69.35
2022-08-17T01:46:29.036Z,71.62
2022-08-17T01:48:33.668Z,73.37
2022-08-17T01:50:38.481Z,77.34
2022-08-17T01:52:42.403Z,75.41
2022-08-17T01:54:48.348Z,76.97
2022-08-17T01:56:53.263Z,73.92
2022-08-17T01:58:57.291Z,74.00
2022-08-17T02:01:01.488Z,71.75
2022-08-17T02:03:05.173Z,71.68
2022-08-17T02:05:09.250Z,69.60
2022-08-17T02:07:12.045Z,69.12
2022-08-17T02:09:16.501Z,69.10
2022-08-17T02:11:21.911Z,72.41
2022-08-17T02:13:29.685Z,71.03
2022-08-17T02:15:34.576Z,72.18
2022-08-17T02:17:37.508Z,71.11
2022-08-17T02:19:40.508Z,69.16
2022-08-17T02:21:45.235Z,67.77
2022-08-17T02:23:49.738Z,66.89
2022-08-17T02:25:52.627Z,66.32
2022-08-17T02:27:55.477Z,65.84
2022-08-17T02:29:59.664Z,65.20
2022-08-17T02:32:02.783Z,64.63
2022-08-17T02:34:06.190Z,69.38
2022-08-17T02:36:09.989Z,72.10
2022-08-17T02:38:12.870Z,71.80
2022-08-17T02:40:16.062Z,73.80
2022-08-17T02:42:34.491Z,74.92
2022-08-17T02:44:39.720Z,77.54
2022-08-17T02:46:44.408Z,78.70
2022-08-17T02:48:47.281Z,80.60
2022-08-17T02:50:50.157Z,76.73
2022-08-17T02:53:01.607Z,77.42
2022-08-17T02:55:06.620Z,79.32
2022-08-17T02:57:09.767Z,81.22
2022-08-17T02:59:12.617Z,83.22
2022-08-17T03:01:15.510Z,84.16
2022-08-17T03:03:19.809Z,87.57
2022-08-17T03:05:24.893Z,87.91
2022-08-17T03:07:27.751Z,86.88
2022-08-17T03:09:30.641Z,94.40
2022-08-17T03:11:33.588Z,91.35
2022-08-17T03:13:36.448Z,87.91
2022-08-17T03:15:43.900Z,85.46
2022-08-17T03:17:47.572Z,83.78
2022-08-17T03:19:52.278Z,84.02
2022-08-17T03:21:55.616Z,84.75
2022-08-17T03:23:58.473Z,85.24
2022-08-17T03:26:02.145Z,86.82
2022-08-17T03:28:06.207Z,85.56
2022-08-17T03:30:13.072Z,84.09
2022-08-17T03:32:17.631Z,81.62
2022-08-17T03:34:20.499Z,80.52
2022-08-17T03:36:24.763Z,81.16
2022-08-17T03:38:27.693Z,79.29
2022-08-17T03:40:55.858Z,78.92
2022-08-17T03:42:54.817Z,77.36
2022-08-17T03:44:59.310Z,78.93
2022-08-17T03:47:19.594Z,79.58
2022-08-17T03:49:40.191Z,78.53
2022-08-17T03:52:01.869Z,76.80
2022-08-17T03:54:22.667Z,77.15
2022-08-17T03:56:43.489Z,75.35
2022-08-17T03:58:46.920Z,74.59
2022-08-17T04:00:50.726Z,73.80
2022-08-17T04:02:53.566Z,73.08
2022-08-17T04:04:56.469Z,74.85
2022-08-17T04:07:00.666Z,75.61
2022-08-17T04:09:03.493Z,76.83
2022-08-17T04:11:06.542Z,76.52
2022-08-17T04:13:09.318Z,75.67
2022-08-17T04:15:13.328Z,78.58
2022-08-17T04:17:16.159Z,80.38
2022-08-17T04:19:19.286Z,78.92
2022-08-17T04:21:22.139Z,77.68
2022-08-17T04:23:32.594Z,76.20
2022-08-17T04:25:39.037Z,75.84
2022-08-17T04:27:41.873Z,73.57
2022-08-17T04:29:44.690Z,72.95
2022-08-17T04:31:58.152Z,73.48
2022-08-17T04:34:01.190Z,76.96
2022-08-17T04:36:06.958Z,79.01
2022-08-17T04:38:12.387Z,80.30
2022-08-17T04:40:34.139Z,78.29
2022-08-17T04:42:36.947Z,78.35
2022-08-17T04:44:39.850Z,80.79
2022-08-17T04:46:42.906Z,83.61
2022-08-17T04:48:47.791Z,84.69
2022-08-17T04:50:52.017Z,85.57
2022-08-17T04:52:55.017Z,87.23
2022-08-17T04:54:58.102Z,87.35
2022-08-17T04:57:02.209Z,86.84
2022-08-17T04:59:08.826Z,87.37
2022-08-17T05:01:11.852Z,86.86
2022-08-17T05:03:14.927Z,88.08
2022-08-17T05:05:20.836Z,88.23
2022-08-17T05:07:27.209Z,87.55
2022-08-17T05:09:32.600Z,89.24
2022-08-17T05:11:37.136Z,88.73
2022-08-17T05:13:41.316Z,91.58
2022-08-17T05:15:47.775Z,90.63
2022-08-17T05:17:50.903Z,91.52
2022-08-17T05:19:53.879Z,92.14
2022-08-17T05:21:56.857Z,90.82
2022-08-17T05:24:00.523Z,89.95
2022-08-17T05:26:03.358Z,90.94
2022-08-17T05:28:10.784Z,90.54
2022-08-17T05:30:17.428Z,90.28
2022-08-17T05:32:38.550Z,89.94
2022-08-17T05:34:42.990Z,93.01
2022-08-17T05:36:45.872Z,92.66
2022-08-17T05:38:48.788Z,91.46
2022-08-17T05:40:52.493Z,90.51
2022-08-17T05:43:06.096Z,90.56
2022-08-17T05:45:09.987Z,89.86
2022-08-17T05:47:14.157Z,90.63
2022-08-17T05:49:20.097Z,92.93
2022-08-17T05:51:39.621Z,91.49
2022-08-17T05:53:52.216Z,91.36
2022-08-17T05:56:10.879Z,90.09
2022-08-17T05:58:36.873Z,93.11
2022-08-17T06:00:50.439Z,91.41
2022-08-17T06:03:05.930Z,89.72
2022-08-17T06:05:18.496Z,88.70
2022-08-17T06:07:25.614Z,87.02
2022-08-17T06:09:39.546Z,85.54
2022-08-17T06:11:53.429Z,86.31
2022-08-17T06:14:16.531Z,86.34
2022-08-17T06:16:25.960Z,86.50
2022-08-17T06:18:46.064Z,86.94
2022-08-17T06:20:54.569Z,86.93
2022-08-17T06:23:04.241Z,87.53
2022-08-17T06:25:13.851Z,87.80
2022-08-17T06:27:27.529Z,87.29
2022-08-17T06:29:39.854Z,87.02
2022-08-17T06:31:42.751Z,87.46
2022-08-17T06:33:47.566Z,86.57
2022-08-17T06:36:02.709Z,86.62
2022-08-17T06:38:37.075Z,86.39
2022-08-17T06:41:03.870Z,86.32
2022-08-17T06:43:20.717Z,85.32
2022-08-17T06:46:31.004Z,83.98
2022-08-17T06:48:41.640Z,82.90
2022-08-17T06:50:53.456Z,82.49
2022-08-17T06:53:01.664Z,81.54
2022-08-17T06:55:09.360Z,78.63
2022-08-17T06:57:25.854Z,78.24
2022-08-17T06:59:54.806Z,76.75
2022-08-17T07:01:57.158Z,76.34
2022-08-17T07:04:11.675Z,75.42
2022-08-17T07:06:19.743Z,76.11
2022-08-17T07:08:35.017Z,75.66
2022-08-17T07:10:43.656Z,75.14
2022-08-17T07:12:49.191Z,73.62
2022-08-17T07:14:57.285Z,73.57
2022-08-17T07:17:05.143Z,72.88
2022-08-17T07:19:10.940Z,71.52
2022-08-17T07:21:27.306Z,71.05
2022-08-17T07:23:40.150Z,69.28
2022-08-17T07:25:43.104Z,68.01
2022-08-17T07:27:52.655Z,67.68
2022-08-17T07:29:59.374Z,67.23
2022-08-17T07:32:03.031Z,66.80
2022-08-17T07:34:14.382Z,65.77
2022-08-17T07:36:30.058Z,65.13
2022-08-17T07:38:35.495Z,64.08
2022-08-17T07:40:40.706Z,64.13
2022-08-17T07:42:46.550Z,62.56
2022-08-17T07:44:54.926Z,63.43
2022-08-17T07:47:16.016Z,61.67
2022-08-17T07:49:24.365Z,61.16
2022-08-17T07:51:32.077Z,61.16
2022-08-17T07:53:35.654Z,60.88
2022-08-17T07:55:41.449Z,61.93
2022-08-17T07:57:46.597Z,60.85
2022-08-17T08:00:26.677Z,60.47
2022-08-17T08:02:38.625Z,59.50
2022-08-17T08:05:01.031Z,60.66
2022-08-17T08:07:10.016Z,60.55
2022-08-17T08:09:30.504Z,60.09
2022-08-17T08:11:35.738Z,59.81
2022-08-17T08:24:56.270Z,59.08
2022-08-17T08:27:08.398Z,57.95
2022-08-17T08:29:20.360Z,57.96
2022-08-17T08:31:31.511Z,58.38
2022-08-17T08:33:48.995Z,57.91
2022-08-17T08:35:55.018Z,60.48
2022-08-17T08:38:07.612Z,62.20
2022-08-17T08:40:29.813Z,64.48
2022-08-17T08:42:42.267Z,65.26
2022-08-17T08:45:00.177Z,63.96
2022-08-17T08:47:19.291Z,65.21
2022-08-17T08:50:03.944Z,65.09
2022-08-17T08:52:17.124Z,74.54
2022-08-17T08:54:34.831Z,76.73
2022-08-17T08:57:11.481Z,72.41
2022-08-17T08:59:26.019Z,81.97
2022-08-17T09:01:38.439Z,77.52
2022-08-17T09:04:25.202Z,85.17
2022-08-17T09:06:41.724Z,91.94
2022-08-17T09:09:03.312Z,87.64
2022-08-17T09:11:12.057Z,92.96
2022-08-17T09:13:25.639Z,100.00
2022-08-17T09:15:33.665Z,100.00
2022-08-17T09:17:44.276Z,100.00
2022-08-17T09:19:52.458Z,100.00
2022-08-17T09:22:00.158Z,100.00
2022-08-17T09:24:20.766Z,100.00
2022-08-17T09:26:30.487Z,100.00
2022-08-17T09:28:36.924Z,100.00
2022-08-17T09:30:45.422Z,100.00
2022-08-17T09:32:55.331Z,100.00
2022-08-17T09:35:05.151Z,100.00
2022-08-17T09:37:20.180Z,100.00
2022-08-17T09:39:32.292Z,100.00
2022-08-17T09:41:48.526Z,100.00
2022-08-17T09:43:59.697Z,100.00
2022-08-17T09:46:05.327Z,100.00
2022-08-17T09:48:18.201Z,100.00
2022-08-17T09:51:03.527Z,99.19
2022-08-17T09:52:54.682Z,100.00
2022-08-17T09:55:00.304Z,100.00
2022-08-17T09:57:29.160Z,100.00
2022-08-17T09:59:46.787Z,100.00
2022-08-17T10:01:56.554Z,100.00
2022-08-17T10:04:29.288Z,100.00
2022-08-17T10:06:38.835Z,100.00
2022-08-17T10:08:51.969Z,100.00
2022-08-17T10:11:07.022Z,100.00
2022-08-17T10:13:18.908Z,100.00
2022-08-17T10:15:43.904Z,100.00
2022-08-17T10:18:04.042Z,100.00
2022-08-17T10:20:13.612Z,100.00
2022-08-17T10:22:40.205Z,100.00
2022-08-17T10:25:22.303Z,100.00
2022-08-17T10:27:33.451Z,100.00
2022-08-17T10:29:48.802Z,100.00
2022-08-17T10:31:59.211Z,100.00
2022-08-17T10:34:40.417Z,100.00
2022-08-17T10:36:55.014Z,100.00
2022-08-17T10:39:10.808Z,100.00
2022-08-17T10:41:25.223Z,100.00
2022-08-17T10:44:36.563Z,100.00
2022-08-17T10:46:31.389Z,100.00
2022-08-17T10:48:39.057Z,100.00
2022-08-17T10:51:01.711Z,100.00
2022-08-17T10:53:04.662Z,100.00
2022-08-17T10:55:14.274Z,100.00
2022-08-17T10:57:39.344Z,100.00
2022-08-17T10:59:51.838Z,100.00
2022-08-17T11:02:25.958Z,100.00
2022-08-17T11:04:46.500Z,100.00
2022-08-17T11:07:02.319Z,100.00
2022-08-17T11:09:29.361Z,100.00
2022-08-17T11:12:00.376Z,100.00
2022-08-17T11:14:18.057Z,100.00
2022-08-17T11:16:40.995Z,100.00
2022-08-17T11:19:24.016Z,100.00
2022-08-17T11:21:52.693Z,100.00
2022-08-17T11:24:24.215Z,100.00
2022-08-17T11:26:32.011Z,100.00
2022-08-17T11:32:07.765Z,100.00
2022-08-17T11:34:18.868Z,100.00
2022-08-17T11:36:34.583Z,100.00
2022-08-17T11:38:48.542Z,94.74
2022-08-17T11:41:06.883Z,95.20
2022-08-17T11:43:50.102Z,91.55
2022-08-17T11:46:06.423Z,94.23
2022-08-17T11:48:37.007Z,93.28
2022-08-17T11:51:06.795Z,91.40
2022-08-17T11:54:14.600Z,90.17
2022-08-17T11:56:38.241Z,89.60
2022-08-17T11:58:43.299Z,91.39
2022-08-17T12:00:57.508Z,92.07
2022-08-17T12:03:23.690Z,93.45
2022-08-17T12:05:32.310Z,93.50
2022-08-17T12:07:42.402Z,92.74
2022-08-17T12:09:50.786Z,90.99
2022-08-17T12:12:13.223Z,87.37
2022-08-17T12:14:32.262Z,80.71
2022-08-17T12:16:45.366Z,78.95
2022-08-17T12:18:53.775Z,77.32
2022-08-17T12:21:26.144Z,76.68
2022-08-17T12:23:40.829Z,71.86
2022-08-17T12:25:55.361Z,67.33
2022-08-17T12:28:06.430Z,69.87
2022-08-17T12:30:13.889Z,67.45
2022-08-17T12:32:21.409Z,66.76
2022-08-17T12:34:27.569Z,66.20
2022-08-17T12:36:31.569Z,62.70
2022-08-17T12:38:37.796Z,60.13
2022-08-17T12:40:40.572Z,56.09
2022-08-17T12:42:56.061Z,54.90
2022-08-17T12:44:59.181Z,52.32
2022-08-17T12:47:07.569Z,50.75
2022-08-17T12:49:15.458Z,46.26
2022-08-17T12:51:18.335Z,41.69
2022-08-17T12:53:24.741Z,42.08
2022-08-17T12:55:33.982Z,40.95
2022-08-17T12:57:43.364Z,38.19
2022-08-17T12:59:52.955Z,37.74
2022-08-17T13:01:55.907Z,40.67
2022-08-17T13:04:00.670Z,39.46
2022-08-17T13:06:06.452Z,38.58
2022-08-17T13:08:17.093Z,37.78
2022-08-17T13:10:26.403Z,37.22
2022-08-17T13:12:36.637Z,38.60
2022-08-17T13:14:47.776Z,37.10
2022-08-17T13:16:55.984Z,38.24
2022-08-17T13:19:08.260Z,38.03
2022-08-17T13:21:26.731Z,41.95
2022-08-17T13:23:31.376Z,40.82
2022-08-17T13:25:35.591Z,38.86
2022-08-17T13:27:43.523Z,38.41
2022-08-17T13:29:53.448Z,36.09
2022-08-17T13:32:14.678Z,37.40
2022-08-17T13:35:05.895Z,36.30
2022-08-17T13:37:30.303Z,35.57
2022-08-17T13:39:42.753Z,35.21
2022-08-17T13:41:46.831Z,31.35
2022-08-17T13:43:50.501Z,34.61
2022-08-17T13:45:54.752Z,33.28
2022-08-17T13:48:13.649Z,32.78
2022-08-17T13:50:21.745Z,31.29
2022-08-17T13:52:38.403Z,31.11
2022-08-17T13:54:42.081Z,30.73
2022-08-17T13:56:56.146Z,30.19
2022-08-17T13:59:03.427Z,30.14
2022-08-17T14:01:32.699Z,31.52
2022-08-17T14:03:35.819Z,32.44
2022-08-17T14:05:40.344Z,33.02
2022-08-17T14:07:43.326Z,31.47
2022-08-17T14:09:51.259Z,29.52
2022-08-17T14:11:56.143Z,30.59
2022-08-17T14:13:58.965Z,29.69
2022-08-17T14:16:01.971Z,29.36
2022-08-17T14:18:06.326Z,29.43
2022-08-17T14:20:12.183Z,30.01
2022-08-17T14:22:19.986Z,29.85
2022-08-17T14:24:25.172Z,31.48
2022-08-17T14:26:28.854Z,29.36
2022-08-17T14:28:31.935Z,28.73
2022-08-17T14:30:35.600Z,29.09
2022-08-17T14:32:41.338Z,29.11
2022-08-17T14:34:46.247Z,31.02
2022-08-17T14:36:49.308Z,30.84
2022-08-17T14:38:52.273Z,30.42
2022-08-17T14:40:55.311Z,30.87
2022-08-17T14:42:58.865Z,31.24
2022-08-17T14:45:05.913Z,32.15
2022-08-17T14:47:11.892Z,33.81
2022-08-17T14:49:15.643Z,33.87
2022-08-17T14:51:20.832Z,33.85
2022-08-17T14:53:23.720Z,32.67
2022-08-17T14:55:26.709Z,31.92
2022-08-17T14:57:34.142Z,31.96
2022-08-17T14:59:37.244Z,32.63
2022-08-17T15:01:40.095Z,33.76
2022-08-17T15:03:43.324Z,35.13
2022-08-17T15:05:47.315Z,33.94
2022-08-17T15:07:53.614Z,33.61
2022-08-17T15:09:56.737Z,33.86
2022-08-17T15:12:02.991Z,34.83
2022-08-17T15:14:06.205Z,35.22
2022-08-17T15:16:13.616Z,35.54
2022-08-17T15:18:16.921Z,36.39
2022-08-17T15:20:22.830Z,36.49
2022-08-17T15:22:28.345Z,36.74
2022-08-17T15:24:33.559Z,35.70
2022-08-17T15:26:39.064Z,35.02
2022-08-17T15:28:41.932Z,35.60
2022-08-17T15:30:45.209Z,35.60
2022-08-17T15:32:54.302Z,35.80
2022-08-17T15:35:00.236Z,36.84
2022-08-17T15:37:03.170Z,36.69
2022-08-17T15:39:05.975Z,37.28
2022-08-17T15:41:15.076Z,37.36
2022-08-17T15:43:26.402Z,36.89
2022-08-17T15:45:30.732Z,37.61
2022-08-17T15:47:33.528Z,36.98
2022-08-17T15:49:40.513Z,36.83
2022-08-17T15:51:43.419Z,37.25
2022-08-17T15:53:48.772Z,37.38
2022-08-17T15:55:51.543Z,37.93
2022-08-17T15:57:57.145Z,38.51
2022-08-17T16:00:00.002Z,38.50
2022-08-17T16:03:13.202Z,38.85
2022-08-17T16:04:30.233Z,39.61
2022-08-17T16:06:34.524Z,39.75
2022-08-17T16:08:38.370Z,39.73
2022-08-17T16:10:41.384Z,39.65
2022-08-17T16:12:45.710Z,38.98
2022-08-17T16:14:51.682Z,39.20
2022-08-17T16:16:54.471Z,39.34
2022-08-17T16:18:58.774Z,40.34
2022-08-17T16:21:19.639Z,41.63
2022-08-17T16:23:22.523Z,41.47
2022-08-17T16:25:50.304Z,41.86
2022-08-17T16:27:53.542Z,42.09
2022-08-17T16:29:58.253Z,42.73
2022-08-17T16:32:08.958Z,43.60
2022-08-17T16:34:17.835Z,43.63
2022-08-17T16:36:23.239Z,46.13
2022-08-17T16:38:26.619Z,46.32
2022-08-17T16:40:36.212Z,45.88
2022-08-17T16:42:42.829Z,45.56
2022-08-17T16:44:45.940Z,44.30
2022-08-17T16:46:51.181Z,43.41
2022-08-17T16:48:53.974Z,43.91
2022-08-17T16:50:58.609Z,43.55
2022-08-17T16:53:10.346Z,44.25
2022-08-17T16:55:13.462Z,44.84
2022-08-17T16:57:17.629Z,45.02
2022-08-17T16:59:30.093Z,44.20
2022-08-17T17:01:43.427Z,44.20
2022-08-17T17:03:58.257Z,44.61
2022-08-17T17:06:14.409Z,46.60
2022-08-17T17:08:25.530Z,47.24
2022-08-17T17:10:36.908Z,46.44
2022-08-17T17:13:04.019Z,45.49
2022-08-17T17:15:05.276Z,44.78
2022-08-17T17:17:14.520Z,44.52
2022-08-17T17:19:34.410Z,44.69
2022-08-17T17:21:45.263Z,46.36
2022-08-17T17:23:56.004Z,46.92
2022-08-17T17:26:04.543Z,45.86
2022-08-17T17:28:24.925Z,45.68
2022-08-17T17:30:34.123Z,44.85
2022-08-17T17:32:41.097Z,45.14
2022-08-17T17:34:51.056Z,45.38
2022-08-17T17:36:59.106Z,45.70
2022-08-17T17:39:06.453Z,45.70
2022-08-17T17:41:14.201Z,46.28
2022-08-17T17:43:38.245Z,47.55
2022-08-17T17:45:45.362Z,48.15
2022-08-17T17:47:48.629Z,49.12
2022-08-17T17:49:52.779Z,48.59
2022-08-17T17:52:10.901Z,47.87
2022-08-17T17:54:32.358Z,50.04
2022-08-17T17:56:44.460Z,50.80
2022-08-17T17:58:55.633Z,52.40
2022-08-17T18:01:14.844Z,54.35
2022-08-17T18:03:35.349Z,55.59
2022-08-17T18:05:52.909Z,59.27
2022-08-17T18:08:10.863Z,66.33
2022-08-17T18:10:30.090Z,68.50
2022-08-17T18:12:42.069Z,72.48
2022-08-17T18:15:03.912Z,75.04
2022-08-17T18:17:07.563Z,75.46
2022-08-17T18:19:13.953Z,75.75
2022-08-17T18:21:21.647Z,77.38
2022-08-17T18:23:28.487Z,78.97
2022-08-17T18:25:44.745Z,82.93
2022-08-17T18:27:52.236Z,83.14
2022-08-17T18:29:57.372Z,84.25
2022-08-17T18:32:29.119Z,83.69
2022-08-17T18:34:48.745Z,90.15
2022-08-17T18:36:54.373Z,91.52
2022-08-17T18:39:15.435Z,94.64
2022-08-17T18:41:23.636Z,95.00
2022-08-17T18:43:28.569Z,94.37
2022-08-17T18:45:49.644Z,98.09
2022-08-17T18:47:55.362Z,97.18
2022-08-17T18:50:01.956Z,97.49
2022-08-17T18:52:15.766Z,95.26
2022-08-17T18:54:21.809Z,92.58
2022-08-17T18:56:52.508Z,90.41
2022-08-17T18:59:03.623Z,89.79
2022-08-17T19:01:19.579Z,87.04
2022-08-17T19:03:26.411Z,87.42
2022-08-17T19:05:36.752Z,85.11
2022-08-17T19:07:42.632Z,86.16
2022-08-17T19:09:54.909Z,87.23
2022-08-17T19:11:59.061Z,88.29
2022-08-17T19:14:10.399Z,86.84
2022-08-17T19:16:18.173Z,84.47
2022-08-17T19:18:27.299Z,85.03
2022-08-17T19:20:33.097Z,85.64
2022-08-17T19:22:49.694Z,85.46
2022-08-17T19:25:03.503Z,85.64
2022-08-17T19:27:20.259Z,84.77
2022-08-17T19:29:27.606Z,84.41
2022-08-17T19:31:32.551Z,83.68
2022-08-17T19:33:37.493Z,81.55
2022-08-17T19:35:49.954Z,80.83
2022-08-17T19:38:03.793Z,81.71
2022-08-17T19:40:41.670Z,81.34
2022-08-17T19:42:57.084Z,79.06
2022-08-17T19:45:11.841Z,77.54
2022-08-17T19:47:50.970Z,79.60
2022-08-17T19:49:59.101Z,79.34
2022-08-17T19:52:11.817Z,80.20
2022-08-17T19:54:27.451Z,78.56
2022-08-17T19:56:41.403Z,77.77
2022-08-17T19:58:57.383Z,79.75
2022-08-17T20:01:00.681Z,78.50
2022-08-17T20:03:09.329Z,83.52
2022-08-17T20:05:17.120Z,83.27
2022-08-17T20:07:24.923Z,84.25
2022-08-17T20:09:35.789Z,83.12
2022-08-17T20:11:43.121Z,84.79
2022-08-17T20:13:53.985Z,84.97
2022-08-17T20:15:58.338Z,85.84
2022-08-17T20:18:04.409Z,86.13
2022-08-17T20:20:20.033Z,87.19
2022-08-17T20:22:30.787Z,89.17
2022-08-17T20:24:50.287Z,88.30
2022-08-17T20:26:58.946Z,93.21
2022-08-17T20:29:36.908Z,93.90
2022-08-17T20:31:49.514Z,93.87
2022-08-17T20:33:52.492Z,92.68
2022-08-17T20:36:05.821Z,92.83
2022-08-17T20:38:11.717Z,92.06
2022-08-17T20:40:22.402Z,93.10
2022-08-17T20:42:33.587Z,93.74
2022-08-17T20:44:40.278Z,95.97
2022-08-17T20:46:56.591Z,96.17
2022-08-17T20:49:14.984Z,95.81
2022-08-17T20:51:32.020Z,93.12
2022-08-17T20:54:14.329Z,91.27
2022-08-17T20:56:48.822Z,88.76
2022-08-17T20:58:51.869Z,87.48
2022-08-17T21:01:12.616Z,87.13
2022-08-17T21:03:51.432Z,87.01
2022-08-17T21:06:00.401Z,84.03
2022-08-17T21:08:16.029Z,83.43
2022-08-17T21:10:35.866Z,82.90
2022-08-17T21:12:48.022Z,82.10
2022-08-17T21:15:02.441Z,79.26
2022-08-17T21:17:22.708Z,79.71
2022-08-17T21:20:00.249Z,78.49
2022-08-17T21:22:15.155Z,77.11
2022-08-17T21:24:31.608Z,76.39
2022-08-17T21:26:51.086Z,76.63
2022-08-17T21:29:29.814Z,77.05
2022-08-17T21:31:35.686Z,78.22
2022-08-17T21:33:40.045Z,79.66
2022-08-17T21:35:50.806Z,80.59
2022-08-17T21:37:58.754Z,81.14
2022-08-17T21:40:18.919Z,80.00
2022-08-17T21:42:26.067Z,79.67
2022-08-17T21:44:35.640Z,81.29
2022-08-17T21:46:42.902Z,83.25
2022-08-17T21:48:54.264Z,84.86
2022-08-17T21:51:01.097Z,88.17
2022-08-17T21:53:06.867Z,93.14
2022-08-17T21:55:21.501Z,99.32
2022-08-17T21:57:28.436Z,100.00
2022-08-17T21:59:36.645Z,100.00
2022-08-17T22:01:43.106Z,100.00
2022-08-17T22:03:47.378Z,100.00
2022-08-17T22:05:51.529Z,100.00
2022-08-17T22:08:02.333Z,100.00
2022-08-17T22:10:07.439Z,100.00
2022-08-17T22:12:12.236Z,100.00
2022-08-17T22:14:18.042Z,100.00
2022-08-17T22:16:28.936Z,100.00
2022-08-17T22:18:33.182Z,100.00
2022-08-17T22:20:36.034Z,100.00
2022-08-17T22:23:14.737Z,100.00
2022-08-17T22:25:22.131Z,100.00
2022-08-17T22:27:50.355Z,100.00
2022-08-17T22:29:59.126Z,100.00
2022-08-17T22:32:03.513Z,100.00
2022-08-17T22:34:15.211Z,100.00
2022-08-17T22:36:29.080Z,100.00
2022-08-17T22:38:33.279Z,100.00
2022-08-17T22:40:36.115Z,100.00
2022-08-17T22:42:47.343Z,100.00
2022-08-17T22:44:52.706Z,100.00
2022-08-17T22:46:59.749Z,100.00
2022-08-17T22:49:04.104Z,100.00
2022-08-17T22:51:12.220Z,100.00
2022-08-17T22:53:36.035Z,100.00
2022-08-17T22:55:56.247Z,100.00
2022-08-17T22:58:17.439Z,100.00
2022-08-17T23:00:35.668Z,100.00
2022-08-17T23:02:52.984Z,100.00
2022-08-17T23:05:21.891Z,100.00
2022-08-17T23:07:24.804Z,100.00
2022-08-17T23:09:27.723Z,100.00
2022-08-17T23:11:42.884Z,100.00
2022-08-17T23:13:49.373Z,100.00
2022-08-17T23:15:52.580Z,100.00
2022-08-17T23:17:55.570Z,100.00
2022-08-17T23:19:58.402Z,100.00
2022-08-17T23:22:04.551Z,100.00
2022-08-17T23:24:08.845Z,100.00
2022-08-17T23:26:11.971Z,100.00
2022-08-17T23:28:14.960Z,100.00
2022-08-17T23:30:17.945Z,100.00
2022-08-17T23:32:22.163Z,100.00
2022-08-17T23:34:25.570Z,100.00
2022-08-17T23:36:29.413Z,100.00
2022-08-17T23:38:33.840Z,100.00
2022-08-17T23:40:37.757Z,100.00
2022-08-17T23:42:47.248Z,100.00
2022-08-17T23:44:50.527Z,100.00
2022-08-17T23:46:54.549Z,100.00
2022-08-17T23:48:57.362Z,100.00
2022-08-17T23:51:04.309Z,100.00
2022-08-17T23:53:07.982Z,100.00
2022-08-17T23:55:13.345Z,100.00
2022-08-17T23:57:17.978Z,100.00
2022-08-17T23:59:23.514Z,100.00
